sensor_id;sensor_type;location;lat;lon;timestamp;P1;durP1;ratioP1;P2;durP2;ratioP2
54247;SDS011;40161;39.768;2.722;2022-08-20T00:00:23;3.97;;;1.45;;
54247;SDS011;40161;39.768;2.722;2022-08-20T00:02:56;4.47;;;1.80;;
54247;SDS011;40161;39.768;2.722;2022-08-20T00:07:55;5.05;;;2.03;;
54247;SDS011;40161;39.768;2.722;2022-08-20T00:10:20;4.78;;;1.60;;
54247;SDS011;40161;39.768;2.722;2022-08-20T00:12:47;4.03;;;1.70;;
54247;SDS011;40161;39.768;2.722;2022-08-20T00:15:14;6.15;;;2.97;;
54247;SDS011;40161;39.768;2.722;2022-08-20T00:17:40;3.92;;;1.80;;
54247;SDS011;40161;39.768;2.722;2022-08-20T00:23:28;3.08;;;1.30;;
54247;SDS011;40161;39.768;2.722;2022-08-20T00:25:54;5.82;;;1.92;;
54247;SDS011;40161;39.768;2.722;2022-08-20T00:28:19;4.25;;;1.75;;
54247;SDS011;40161;39.768;2.722;2022-08-20T00:30:46;4.25;;;2.38;;
54247;SDS011;40161;39.768;2.722;2022-08-20T00:33:14;6.60;;;2.65;;
54247;SDS011;40161;39.768;2.722;2022-08-20T00:35:43;5.18;;;2.58;;
54247;SDS011;40161;39.768;2.722;2022-08-20T00:38:12;4.75;;;2.20;;
54247;SDS011;40161;39.768;2.722;2022-08-20T00:40:59;3.70;;;1.58;;
54247;SDS011;40161;39.768;2.722;2022-08-20T00:46:13;5.85;;;2.70;;
54247;SDS011;40161;39.768;2.722;2022-08-20T00:48:48;7.00;;;2.60;;
54247;SDS011;40161;39.768;2.722;2022-08-20T00:53:52;4.22;;;2.10;;
54247;SDS011;40161;39.768;2.722;2022-08-20T00:56:22;5.60;;;1.40;;
54247;SDS011;40161;39.768;2.722;2022-08-20T00:58:48;6.18;;;2.85;;
54247;SDS011;40161;39.768;2.722;2022-08-20T01:01:16;4.28;;;1.60;;
54247;SDS011;40161;39.768;2.722;2022-08-20T01:03:41;4.25;;;1.52;;
54247;SDS011;40161;39.768;2.722;2022-08-20T01:06:07;3.85;;;1.52;;
54247;SDS011;40161;39.768;2.722;2022-08-20T01:08:35;3.28;;;1.48;;
54247;SDS011;40161;39.768;2.722;2022-08-20T01:11:03;3.95;;;1.33;;
54247;SDS011;40161;39.768;2.722;2022-08-20T01:13:52;4.40;;;1.40;;
54247;SDS011;40161;39.768;2.722;2022-08-20T01:16:22;4.20;;;1.63;;
54247;SDS011;40161;39.768;2.722;2022-08-20T01:18:53;3.88;;;1.90;;
54247;SDS011;40161;39.768;2.722;2022-08-20T01:21:21;4.00;;;1.60;;
54247;SDS011;40161;39.768;2.722;2022-08-20T01:26:52;4.28;;;1.73;;
54247;SDS011;40161;39.768;2.722;2022-08-20T01:29:19;5.45;;;1.98;;
54247;SDS011;40161;39.768;2.722;2022-08-20T01:31:49;3.65;;;1.45;;
54247;SDS011;40161;39.768;2.722;2022-08-20T01:34:17;2.60;;;1.23;;
54247;SDS011;40161;39.768;2.722;2022-08-20T01:36:49;4.00;;;1.45;;
54247;SDS011;40161;39.768;2.722;2022-08-20T01:39:21;3.30;;;1.20;;
54247;SDS011;40161;39.768;2.722;2022-08-20T01:44:32;1.95;;;1.05;;
54247;SDS011;40161;39.768;2.722;2022-08-20T01:47:06;3.72;;;1.20;;
54247;SDS011;40161;39.768;2.722;2022-08-20T01:49:38;1.85;;;0.90;;
54247;SDS011;40161;39.768;2.722;2022-08-20T01:52:08;2.58;;;1.00;;
54247;SDS011;40161;39.768;2.722;2022-08-20T01:54:38;2.10;;;1.00;;
54247;SDS011;40161;39.768;2.722;2022-08-20T01:57:12;3.00;;;1.00;;
54247;SDS011;40161;39.768;2.722;2022-08-20T01:59:40;3.85;;;1.30;;
54247;SDS011;40161;39.768;2.722;2022-08-20T02:02:07;3.92;;;1.17;;
54247;SDS011;40161;39.768;2.722;2022-08-20T02:04:33;5.63;;;1.80;;
54247;SDS011;40161;39.768;2.722;2022-08-20T02:10:21;2.97;;;1.20;;
54247;SDS011;40161;39.768;2.722;2022-08-20T02:16:09;4.28;;;1.10;;
54247;SDS011;40161;39.768;2.722;2022-08-20T02:21:58;3.57;;;1.30;;
54247;SDS011;40161;39.768;2.722;2022-08-20T02:27:48;3.10;;;1.23;;
54247;SDS011;40161;39.768;2.722;2022-08-20T02:33:37;3.47;;;1.25;;
54247;SDS011;40161;39.768;2.722;2022-08-20T02:39:24;2.85;;;1.00;;
54247;SDS011;40161;39.768;2.722;2022-08-20T02:41:50;3.30;;;1.00;;
54247;SDS011;40161;39.768;2.722;2022-08-20T02:47:38;2.67;;;1.20;;
54247;SDS011;40161;39.768;2.722;2022-08-20T02:50:04;4.18;;;1.13;;
54247;SDS011;40161;39.768;2.722;2022-08-20T02:52:31;4.45;;;1.20;;
54247;SDS011;40161;39.768;2.722;2022-08-20T02:54:57;2.58;;;1.02;;
54247;SDS011;40161;39.768;2.722;2022-08-20T02:57:22;4.47;;;1.88;;
54247;SDS011;40161;39.768;2.722;2022-08-20T02:59:48;2.30;;;1.10;;
54247;SDS011;40161;39.768;2.722;2022-08-20T03:02:16;4.07;;;1.30;;
54247;SDS011;40161;39.768;2.722;2022-08-20T03:04:43;5.78;;;2.13;;
54247;SDS011;40161;39.768;2.722;2022-08-20T03:07:09;3.25;;;1.40;;
54247;SDS011;40161;39.768;2.722;2022-08-20T03:09:35;2.55;;;1.10;;
54247;SDS011;40161;39.768;2.722;2022-08-20T03:12:01;3.75;;;1.40;;
54247;SDS011;40161;39.768;2.722;2022-08-20T03:14:28;4.00;;;1.30;;
54247;SDS011;40161;39.768;2.722;2022-08-20T03:16:54;4.20;;;1.40;;
54247;SDS011;40161;39.768;2.722;2022-08-20T03:19:19;2.92;;;1.00;;
54247;SDS011;40161;39.768;2.722;2022-08-20T03:21:47;3.10;;;1.20;;
54247;SDS011;40161;39.768;2.722;2022-08-20T03:24:13;4.45;;;1.40;;
54247;SDS011;40161;39.768;2.722;2022-08-20T03:26:38;4.53;;;1.70;;
54247;SDS011;40161;39.768;2.722;2022-08-20T03:29:04;3.45;;;1.45;;
54247;SDS011;40161;39.768;2.722;2022-08-20T03:31:29;5.72;;;1.55;;
54247;SDS011;40161;39.768;2.722;2022-08-20T03:33:55;2.53;;;1.25;;
54247;SDS011;40161;39.768;2.722;2022-08-20T03:36:21;3.85;;;1.40;;
54247;SDS011;40161;39.768;2.722;2022-08-20T03:38:48;3.63;;;1.58;;
54247;SDS011;40161;39.768;2.722;2022-08-20T03:41:13;4.60;;;1.90;;
54247;SDS011;40161;39.768;2.722;2022-08-20T03:43:39;3.22;;;1.40;;
54247;SDS011;40161;39.768;2.722;2022-08-20T03:46:05;3.78;;;1.50;;
54247;SDS011;40161;39.768;2.722;2022-08-20T03:48:31;6.13;;;1.70;;
54247;SDS011;40161;39.768;2.722;2022-08-20T03:50:57;4.93;;;1.58;;
54247;SDS011;40161;39.768;2.722;2022-08-20T03:53:25;4.65;;;1.88;;
54247;SDS011;40161;39.768;2.722;2022-08-20T03:55:56;5.00;;;1.90;;
54247;SDS011;40161;39.768;2.722;2022-08-20T03:58:25;3.58;;;1.60;;
54247;SDS011;40161;39.768;2.722;2022-08-20T04:00:52;3.50;;;1.40;;
54247;SDS011;40161;39.768;2.722;2022-08-20T04:03:18;3.63;;;1.30;;
54247;SDS011;40161;39.768;2.722;2022-08-20T04:05:45;4.38;;;1.58;;
54247;SDS011;40161;39.768;2.722;2022-08-20T04:08:15;4.40;;;1.30;;
54247;SDS011;40161;39.768;2.722;2022-08-20T04:10:43;2.58;;;1.20;;
54247;SDS011;40161;39.768;2.722;2022-08-20T04:13:10;2.58;;;1.05;;
54247;SDS011;40161;39.768;2.722;2022-08-20T04:15:37;2.55;;;1.20;;
54247;SDS011;40161;39.768;2.722;2022-08-20T04:18:04;3.53;;;1.10;;
54247;SDS011;40161;39.768;2.722;2022-08-20T04:20:32;2.92;;;1.40;;
54247;SDS011;40161;39.768;2.722;2022-08-20T04:22:58;3.13;;;1.30;;
54247;SDS011;40161;39.768;2.722;2022-08-20T04:25:24;5.13;;;1.80;;
54247;SDS011;40161;39.768;2.722;2022-08-20T04:27:49;3.88;;;1.60;;
54247;SDS011;40161;39.768;2.722;2022-08-20T04:30:16;5.80;;;1.70;;
54247;SDS011;40161;39.768;2.722;2022-08-20T04:32:44;2.60;;;1.20;;
54247;SDS011;40161;39.768;2.722;2022-08-20T04:35:11;2.65;;;1.20;;
54247;SDS011;40161;39.768;2.722;2022-08-20T04:37:43;2.85;;;1.20;;
54247;SDS011;40161;39.768;2.722;2022-08-20T04:40:11;2.20;;;1.35;;
54247;SDS011;40161;39.768;2.722;2022-08-20T04:43:14;3.08;;;1.50;;
54247;SDS011;40161;39.768;2.722;2022-08-20T04:45:40;3.60;;;1.40;;
54247;SDS011;40161;39.768;2.722;2022-08-20T04:48:06;2.78;;;1.20;;
54247;SDS011;40161;39.768;2.722;2022-08-20T04:50:33;3.45;;;1.20;;
54247;SDS011;40161;39.768;2.722;2022-08-20T04:53:01;3.35;;;1.30;;
54247;SDS011;40161;39.768;2.722;2022-08-20T04:55:28;3.22;;;1.00;;
54247;SDS011;40161;39.768;2.722;2022-08-20T04:58:01;4.50;;;1.20;;
54247;SDS011;40161;39.768;2.722;2022-08-20T05:00:31;3.78;;;1.67;;
54247;SDS011;40161;39.768;2.722;2022-08-20T05:02:57;4.45;;;1.27;;
54247;SDS011;40161;39.768;2.722;2022-08-20T05:05:23;3.78;;;1.30;;
54247;SDS011;40161;39.768;2.722;2022-08-20T05:07:50;3.65;;;1.17;;
54247;SDS011;40161;39.768;2.722;2022-08-20T05:10:17;2.90;;;1.00;;
54247;SDS011;40161;39.768;2.722;2022-08-20T05:12:43;4.25;;;1.10;;
54247;SDS011;40161;39.768;2.722;2022-08-20T05:15:10;4.43;;;1.60;;
54247;SDS011;40161;39.768;2.722;2022-08-20T05:17:36;3.83;;;1.60;;
54247;SDS011;40161;39.768;2.722;2022-08-20T05:20:04;4.35;;;1.52;;
54247;SDS011;40161;39.768;2.722;2022-08-20T05:22:31;2.72;;;1.08;;
54247;SDS011;40161;39.768;2.722;2022-08-20T05:24:57;3.60;;;1.33;;
54247;SDS011;40161;39.768;2.722;2022-08-20T05:27:23;2.08;;;1.17;;
54247;SDS011;40161;39.768;2.722;2022-08-20T05:29:51;3.58;;;1.27;;
54247;SDS011;40161;39.768;2.722;2022-08-20T05:32:19;3.92;;;1.40;;
54247;SDS011;40161;39.768;2.722;2022-08-20T05:34:45;2.70;;;1.30;;
54247;SDS011;40161;39.768;2.722;2022-08-20T05:37:10;6.18;;;1.90;;
54247;SDS011;40161;39.768;2.722;2022-08-20T05:39:36;5.63;;;1.65;;
54247;SDS011;40161;39.768;2.722;2022-08-20T05:42:01;3.80;;;1.40;;
54247;SDS011;40161;39.768;2.722;2022-08-20T05:44:27;4.70;;;1.40;;
54247;SDS011;40161;39.768;2.722;2022-08-20T05:46:52;4.25;;;1.90;;
54247;SDS011;40161;39.768;2.722;2022-08-20T05:49:19;4.43;;;1.52;;
54247;SDS011;40161;39.768;2.722;2022-08-20T05:51:46;4.43;;;1.55;;
54247;SDS011;40161;39.768;2.722;2022-08-20T05:54:12;4.40;;;1.65;;
54247;SDS011;40161;39.768;2.722;2022-08-20T05:56:39;3.97;;;1.58;;
54247;SDS011;40161;39.768;2.722;2022-08-20T05:59:06;3.50;;;1.35;;
54247;SDS011;40161;39.768;2.722;2022-08-20T06:01:34;4.20;;;1.33;;
54247;SDS011;40161;39.768;2.722;2022-08-20T06:04:02;4.85;;;1.50;;
54247;SDS011;40161;39.768;2.722;2022-08-20T06:06:46;7.28;;;1.50;;
54247;SDS011;40161;39.768;2.722;2022-08-20T06:09:15;7.75;;;1.90;;
54247;SDS011;40161;39.768;2.722;2022-08-20T06:11:42;5.38;;;1.70;;
54247;SDS011;40161;39.768;2.722;2022-08-20T06:14:08;5.90;;;2.35;;
54247;SDS011;40161;39.768;2.722;2022-08-20T06:16:34;7.03;;;2.25;;
54247;SDS011;40161;39.768;2.722;2022-08-20T06:18:59;5.57;;;1.75;;
54247;SDS011;40161;39.768;2.722;2022-08-20T06:21:25;5.72;;;1.70;;
54247;SDS011;40161;39.768;2.722;2022-08-20T06:23:50;5.10;;;1.70;;
54247;SDS011;40161;39.768;2.722;2022-08-20T06:26:16;2.75;;;1.35;;
54247;SDS011;40161;39.768;2.722;2022-08-20T06:28:41;5.35;;;2.25;;
54247;SDS011;40161;39.768;2.722;2022-08-20T06:31:07;6.15;;;2.53;;
54247;SDS011;40161;39.768;2.722;2022-08-20T06:33:33;8.63;;;2.63;;
54247;SDS011;40161;39.768;2.722;2022-08-20T06:35:59;6.15;;;3.00;;
54247;SDS011;40161;39.768;2.722;2022-08-20T06:38:24;7.20;;;3.70;;
54247;SDS011;40161;39.768;2.722;2022-08-20T06:40:50;7.28;;;3.30;;
54247;SDS011;40161;39.768;2.722;2022-08-20T06:43:16;6.53;;;3.55;;
54247;SDS011;40161;39.768;2.722;2022-08-20T06:45:41;7.60;;;4.43;;
54247;SDS011;40161;39.768;2.722;2022-08-20T06:48:09;11.98;;;4.32;;
54247;SDS011;40161;39.768;2.722;2022-08-20T06:50:40;6.20;;;3.42;;
54247;SDS011;40161;39.768;2.722;2022-08-20T06:53:09;9.35;;;5.15;;
54247;SDS011;40161;39.768;2.722;2022-08-20T06:55:39;9.65;;;5.45;;
54247;SDS011;40161;39.768;2.722;2022-08-20T06:58:10;8.40;;;3.80;;
54247;SDS011;40161;39.768;2.722;2022-08-20T07:00:37;7.72;;;4.38;;
54247;SDS011;40161;39.768;2.722;2022-08-20T07:03:06;5.70;;;3.33;;
54247;SDS011;40161;39.768;2.722;2022-08-20T07:05:34;5.97;;;3.17;;
54247;SDS011;40161;39.768;2.722;2022-08-20T07:08:01;6.38;;;3.03;;
54247;SDS011;40161;39.768;2.722;2022-08-20T07:10:28;6.20;;;2.53;;
54247;SDS011;40161;39.768;2.722;2022-08-20T07:12:54;4.72;;;2.25;;
54247;SDS011;40161;39.768;2.722;2022-08-20T07:15:21;5.65;;;1.73;;
54247;SDS011;40161;39.768;2.722;2022-08-20T07:17:50;6.07;;;1.90;;
54247;SDS011;40161;39.768;2.722;2022-08-20T07:20:20;6.03;;;1.67;;
54247;SDS011;40161;39.768;2.722;2022-08-20T07:22:47;5.45;;;1.60;;
54247;SDS011;40161;39.768;2.722;2022-08-20T07:25:14;4.20;;;1.65;;
54247;SDS011;40161;39.768;2.722;2022-08-20T07:27:42;2.47;;;1.20;;
54247;SDS011;40161;39.768;2.722;2022-08-20T07:30:10;4.18;;;1.98;;
54247;SDS011;40161;39.768;2.722;2022-08-20T07:33:00;3.47;;;1.50;;
54247;SDS011;40161;39.768;2.722;2022-08-20T07:35:26;3.72;;;1.48;;
54247;SDS011;40161;39.768;2.722;2022-08-20T07:37:51;3.20;;;1.42;;
54247;SDS011;40161;39.768;2.722;2022-08-20T07:40:23;6.13;;;1.92;;
54247;SDS011;40161;39.768;2.722;2022-08-20T07:42:55;6.63;;;3.97;;
54247;SDS011;40161;39.768;2.722;2022-08-20T07:45:22;7.78;;;4.70;;
54247;SDS011;40161;39.768;2.722;2022-08-20T07:47:49;9.73;;;5.18;;
54247;SDS011;40161;39.768;2.722;2022-08-20T07:50:18;17.13;;;8.70;;
54247;SDS011;40161;39.768;2.722;2022-08-20T07:52:46;20.98;;;10.85;;
54247;SDS011;40161;39.768;2.722;2022-08-20T07:55:13;23.73;;;12.27;;
54247;SDS011;40161;39.768;2.722;2022-08-20T07:57:40;12.10;;;6.75;;
54247;SDS011;40161;39.768;2.722;2022-08-20T08:00:08;11.32;;;6.43;;
54247;SDS011;40161;39.768;2.722;2022-08-20T08:02:35;6.75;;;3.35;;
54247;SDS011;40161;39.768;2.722;2022-08-20T08:05:01;8.57;;;3.42;;
54247;SDS011;40161;39.768;2.722;2022-08-20T08:07:28;7.00;;;3.92;;
54247;SDS011;40161;39.768;2.722;2022-08-20T08:09:53;5.38;;;2.00;;
54247;SDS011;40161;39.768;2.722;2022-08-20T08:12:20;4.28;;;2.30;;
54247;SDS011;40161;39.768;2.722;2022-08-20T08:14:47;6.47;;;1.98;;
54247;SDS011;40161;39.768;2.722;2022-08-20T08:17:14;6.25;;;2.40;;
54247;SDS011;40161;39.768;2.722;2022-08-20T08:19:43;6.40;;;2.72;;
54247;SDS011;40161;39.768;2.722;2022-08-20T08:22:14;5.20;;;2.60;;
54247;SDS011;40161;39.768;2.722;2022-08-20T08:24:43;6.65;;;2.70;;
54247;SDS011;40161;39.768;2.722;2022-08-20T08:27:11;6.80;;;3.08;;
54247;SDS011;40161;39.768;2.722;2022-08-20T08:29:37;6.95;;;2.80;;
54247;SDS011;40161;39.768;2.722;2022-08-20T08:32:03;5.53;;;2.83;;
54247;SDS011;40161;39.768;2.722;2022-08-20T08:34:30;6.32;;;2.88;;
54247;SDS011;40161;39.768;2.722;2022-08-20T08:36:57;6.38;;;2.90;;
54247;SDS011;40161;39.768;2.722;2022-08-20T08:39:23;4.38;;;2.47;;
54247;SDS011;40161;39.768;2.722;2022-08-20T08:41:49;5.28;;;2.58;;
54247;SDS011;40161;39.768;2.722;2022-08-20T08:44:20;7.82;;;2.53;;
54247;SDS011;40161;39.768;2.722;2022-08-20T08:46:56;6.72;;;2.53;;
54247;SDS011;40161;39.768;2.722;2022-08-20T08:49:27;4.85;;;2.30;;
54247;SDS011;40161;39.768;2.722;2022-08-20T08:52:00;4.88;;;2.00;;
54247;SDS011;40161;39.768;2.722;2022-08-20T08:54:31;4.78;;;2.03;;
54247;SDS011;40161;39.768;2.722;2022-08-20T08:56:58;5.32;;;1.60;;
54247;SDS011;40161;39.768;2.722;2022-08-20T08:59:24;4.00;;;1.70;;
54247;SDS011;40161;39.768;2.722;2022-08-20T09:01:53;5.28;;;1.67;;
54247;SDS011;40161;39.768;2.722;2022-08-20T09:04:20;5.60;;;1.70;;
54247;SDS011;40161;39.768;2.722;2022-08-20T09:06:48;2.45;;;1.17;;
54247;SDS011;40161;39.768;2.722;2022-08-20T09:09:36;2.75;;;1.20;;
54247;SDS011;40161;39.768;2.722;2022-08-20T09:12:22;5.30;;;1.42;;
54247;SDS011;40161;39.768;2.722;2022-08-20T09:14:51;4.35;;;1.30;;
54247;SDS011;40161;39.768;2.722;2022-08-20T09:17:18;6.15;;;1.30;;
54247;SDS011;40161;39.768;2.722;2022-08-20T09:19:45;1.85;;;0.90;;
54247;SDS011;40161;39.768;2.722;2022-08-20T09:22:21;6.60;;;1.80;;
54247;SDS011;40161;39.768;2.722;2022-08-20T09:24:50;2.97;;;1.13;;
54247;SDS011;40161;39.768;2.722;2022-08-20T09:27:16;3.33;;;1.20;;
54247;SDS011;40161;39.768;2.722;2022-08-20T09:29:42;3.30;;;1.10;;
54247;SDS011;40161;39.768;2.722;2022-08-20T09:32:09;2.47;;;0.90;;
54247;SDS011;40161;39.768;2.722;2022-08-20T09:34:43;2.88;;;1.00;;
54247;SDS011;40161;39.768;2.722;2022-08-20T09:37:11;4.00;;;1.23;;
54247;SDS011;40161;39.768;2.722;2022-08-20T09:39:37;2.05;;;0.98;;
54247;SDS011;40161;39.768;2.722;2022-08-20T09:42:10;2.53;;;1.10;;
54247;SDS011;40161;39.768;2.722;2022-08-20T09:44:41;4.07;;;1.33;;
54247;SDS011;40161;39.768;2.722;2022-08-20T09:47:06;4.03;;;0.75;;
54247;SDS011;40161;39.768;2.722;2022-08-20T09:49:32;3.22;;;0.90;;
54247;SDS011;40161;39.768;2.722;2022-08-20T09:51:57;1.95;;;0.73;;
54247;SDS011;40161;39.768;2.722;2022-08-20T09:54:25;1.67;;;0.95;;
54247;SDS011;40161;39.768;2.722;2022-08-20T09:56:57;2.80;;;1.10;;
54247;SDS011;40161;39.768;2.722;2022-08-20T09:59:23;2.50;;;0.90;;
54247;SDS011;40161;39.768;2.722;2022-08-20T10:01:50;1.88;;;0.82;;
54247;SDS011;40161;39.768;2.722;2022-08-20T10:04:15;2.22;;;1.00;;
54247;SDS011;40161;39.768;2.722;2022-08-20T10:06:41;1.45;;;0.90;;
54247;SDS011;40161;39.768;2.722;2022-08-20T10:09:07;2.58;;;1.00;;
54247;SDS011;40161;39.768;2.722;2022-08-20T10:11:32;3.83;;;1.17;;
54247;SDS011;40161;39.768;2.722;2022-08-20T10:13:58;2.65;;;1.00;;
54247;SDS011;40161;39.768;2.722;2022-08-20T10:16:24;3.83;;;0.88;;
54247;SDS011;40161;39.768;2.722;2022-08-20T10:18:49;2.95;;;0.75;;
54247;SDS011;40161;39.768;2.722;2022-08-20T10:21:15;4.60;;;1.10;;
54247;SDS011;40161;39.768;2.722;2022-08-20T10:23:41;2.65;;;0.90;;
54247;SDS011;40161;39.768;2.722;2022-08-20T10:26:08;1.38;;;0.80;;
54247;SDS011;40161;39.768;2.722;2022-08-20T10:28:35;5.80;;;0.90;;
54247;SDS011;40161;39.768;2.722;2022-08-20T10:31:00;3.55;;;1.10;;
54247;SDS011;40161;39.768;2.722;2022-08-20T10:33:26;2.78;;;0.80;;
54247;SDS011;40161;39.768;2.722;2022-08-20T10:35:51;2.30;;;0.77;;
54247;SDS011;40161;39.768;2.722;2022-08-20T10:38:17;2.30;;;0.80;;
54247;SDS011;40161;39.768;2.722;2022-08-20T10:40:42;1.02;;;0.73;;
54247;SDS011;40161;39.768;2.722;2022-08-20T10:43:08;2.90;;;0.90;;
54247;SDS011;40161;39.768;2.722;2022-08-20T10:45:34;2.47;;;1.33;;
54247;SDS011;40161;39.768;2.722;2022-08-20T10:47:59;2.97;;;1.20;;
54247;SDS011;40161;39.768;2.722;2022-08-20T10:50:25;2.47;;;0.98;;
54247;SDS011;40161;39.768;2.722;2022-08-20T10:52:52;4.22;;;0.73;;
54247;SDS011;40161;39.768;2.722;2022-08-20T10:55:17;3.92;;;1.00;;
54247;SDS011;40161;39.768;2.722;2022-08-20T11:01:05;3.22;;;1.00;;
54247;SDS011;40161;39.768;2.722;2022-08-20T11:03:30;1.90;;;0.95;;
54247;SDS011;40161;39.768;2.722;2022-08-20T11:05:56;2.35;;;0.93;;
54247;SDS011;40161;39.768;2.722;2022-08-20T11:08:21;2.05;;;0.98;;
54247;SDS011;40161;39.768;2.722;2022-08-20T11:10:47;3.55;;;1.38;;
54247;SDS011;40161;39.768;2.722;2022-08-20T11:13:13;2.80;;;1.00;;
54247;SDS011;40161;39.768;2.722;2022-08-20T11:15:39;3.03;;;1.05;;
54247;SDS011;40161;39.768;2.722;2022-08-20T11:18:06;5.43;;;1.20;;
54247;SDS011;40161;39.768;2.722;2022-08-20T11:20:32;3.65;;;1.08;;
54247;SDS011;40161;39.768;2.722;2022-08-20T11:22:58;2.83;;;0.80;;
54247;SDS011;40161;39.768;2.722;2022-08-20T11:25:24;2.80;;;1.00;;
54247;SDS011;40161;39.768;2.722;2022-08-20T11:27:50;3.08;;;0.82;;
54247;SDS011;40161;39.768;2.722;2022-08-20T11:30:22;3.55;;;1.05;;
54247;SDS011;40161;39.768;2.722;2022-08-20T11:32:50;2.50;;;1.00;;
54247;SDS011;40161;39.768;2.722;2022-08-20T11:35:16;2.63;;;1.00;;
54247;SDS011;40161;39.768;2.722;2022-08-20T11:37:43;3.10;;;1.00;;
54247;SDS011;40161;39.768;2.722;2022-08-20T11:40:09;3.45;;;0.95;;
54247;SDS011;40161;39.768;2.722;2022-08-20T11:42:36;2.65;;;0.80;;
54247;SDS011;40161;39.768;2.722;2022-08-20T11:45:02;3.55;;;0.90;;
54247;SDS011;40161;39.768;2.722;2022-08-20T11:47:29;5.60;;;1.08;;
54247;SDS011;40161;39.768;2.722;2022-08-20T11:49:55;3.28;;;0.90;;
54247;SDS011;40161;39.768;2.722;2022-08-20T11:52:23;2.60;;;0.90;;
54247;SDS011;40161;39.768;2.722;2022-08-20T11:54:49;1.90;;;0.80;;
54247;SDS011;40161;39.768;2.722;2022-08-20T11:57:18;3.47;;;1.00;;
54247;SDS011;40161;39.768;2.722;2022-08-20T11:59:52;5.05;;;1.05;;
54247;SDS011;40161;39.768;2.722;2022-08-20T12:02:18;2.25;;;0.88;;
54247;SDS011;40161;39.768;2.722;2022-08-20T12:04:43;2.47;;;0.98;;
54247;SDS011;40161;39.768;2.722;2022-08-20T12:07:10;2.15;;;0.80;;
54247;SDS011;40161;39.768;2.722;2022-08-20T12:09:38;2.60;;;0.90;;
54247;SDS011;40161;39.768;2.722;2022-08-20T12:12:05;2.13;;;0.85;;
54247;SDS011;40161;39.768;2.722;2022-08-20T12:14:31;3.58;;;1.00;;
54247;SDS011;40161;39.768;2.722;2022-08-20T12:16:56;1.55;;;0.90;;
54247;SDS011;40161;39.768;2.722;2022-08-20T12:19:22;6.45;;;1.35;;
54247;SDS011;40161;39.768;2.722;2022-08-20T12:21:47;11.82;;;4.20;;
54247;SDS011;40161;39.768;2.722;2022-08-20T12:24:13;3.33;;;0.90;;
54247;SDS011;40161;39.768;2.722;2022-08-20T12:26:38;3.15;;;1.20;;
54247;SDS011;40161;39.768;2.722;2022-08-20T12:29:03;5.72;;;1.40;;
54247;SDS011;40161;39.768;2.722;2022-08-20T12:31:29;2.72;;;0.98;;
54247;SDS011;40161;39.768;2.722;2022-08-20T12:33:54;3.78;;;1.00;;
54247;SDS011;40161;39.768;2.722;2022-08-20T12:36:20;3.38;;;0.77;;
54247;SDS011;40161;39.768;2.722;2022-08-20T12:38:45;2.28;;;0.88;;
54247;SDS011;40161;39.768;2.722;2022-08-20T12:41:11;3.72;;;1.63;;
54247;SDS011;40161;39.768;2.722;2022-08-20T12:43:36;3.10;;;1.02;;
54247;SDS011;40161;39.768;2.722;2022-08-20T12:46:02;13.55;;;5.70;;
54247;SDS011;40161;39.768;2.722;2022-08-20T12:48:28;6.80;;;3.10;;
54247;SDS011;40161;39.768;2.722;2022-08-20T12:50:53;4.00;;;1.30;;
54247;SDS011;40161;39.768;2.722;2022-08-20T12:53:19;3.00;;;0.90;;
54247;SDS011;40161;39.768;2.722;2022-08-20T12:55:44;3.58;;;1.00;;
54247;SDS011;40161;39.768;2.722;2022-08-20T12:58:10;3.42;;;1.00;;
54247;SDS011;40161;39.768;2.722;2022-08-20T13:00:37;1.88;;;0.90;;
54247;SDS011;40161;39.768;2.722;2022-08-20T13:03:06;4.97;;;1.00;;
54247;SDS011;40161;39.768;2.722;2022-08-20T13:05:32;3.15;;;0.82;;
54247;SDS011;40161;39.768;2.722;2022-08-20T13:07:59;2.75;;;0.90;;
54247;SDS011;40161;39.768;2.722;2022-08-20T13:10:30;3.58;;;1.00;;
54247;SDS011;40161;39.768;2.722;2022-08-20T13:12:57;2.88;;;0.80;;
54247;SDS011;40161;39.768;2.722;2022-08-20T13:15:25;1.55;;;0.77;;
54247;SDS011;40161;39.768;2.722;2022-08-20T13:17:55;2.65;;;0.90;;
54247;SDS011;40161;39.768;2.722;2022-08-20T13:20:23;2.35;;;0.93;;
54247;SDS011;40161;39.768;2.722;2022-08-20T13:22:51;2.58;;;1.10;;
54247;SDS011;40161;39.768;2.722;2022-08-20T13:25:17;2.92;;;0.80;;
54247;SDS011;40161;39.768;2.722;2022-08-20T13:27:43;2.15;;;0.93;;
54247;SDS011;40161;39.768;2.722;2022-08-20T13:30:11;3.33;;;1.08;;
54247;SDS011;40161;39.768;2.722;2022-08-20T13:32:39;1.95;;;0.85;;
54247;SDS011;40161;39.768;2.722;2022-08-20T13:35:06;3.90;;;0.90;;
54247;SDS011;40161;39.768;2.722;2022-08-20T13:37:32;1.73;;;0.82;;
54247;SDS011;40161;39.768;2.722;2022-08-20T13:39:58;2.17;;;0.80;;
54247;SDS011;40161;39.768;2.722;2022-08-20T13:42:25;5.20;;;1.05;;
54247;SDS011;40161;39.768;2.722;2022-08-20T13:44:52;2.55;;;0.98;;
54247;SDS011;40161;39.768;2.722;2022-08-20T13:47:28;2.72;;;0.75;;
54247;SDS011;40161;39.768;2.722;2022-08-20T13:50:16;3.30;;;0.90;;
54247;SDS011;40161;39.768;2.722;2022-08-20T13:52:43;2.00;;;0.70;;
54247;SDS011;40161;39.768;2.722;2022-08-20T13:55:10;2.38;;;0.90;;
54247;SDS011;40161;39.768;2.722;2022-08-20T13:57:37;1.88;;;0.90;;
54247;SDS011;40161;39.768;2.722;2022-08-20T14:00:04;2.22;;;0.80;;
54247;SDS011;40161;39.768;2.722;2022-08-20T14:02:34;6.07;;;0.90;;
54247;SDS011;40161;39.768;2.722;2022-08-20T14:04:59;2.85;;;1.00;;
54247;SDS011;40161;39.768;2.722;2022-08-20T14:07:27;2.70;;;1.00;;
54247;SDS011;40161;39.768;2.722;2022-08-20T14:09:55;4.30;;;1.00;;
54247;SDS011;40161;39.768;2.722;2022-08-20T14:12:28;2.30;;;0.88;;
54247;SDS011;40161;39.768;2.722;2022-08-20T14:14:54;2.90;;;0.80;;
54247;SDS011;40161;39.768;2.722;2022-08-20T14:17:30;1.50;;;0.65;;
54247;SDS011;40161;39.768;2.722;2022-08-20T14:19:59;3.35;;;1.05;;
54247;SDS011;40161;39.768;2.722;2022-08-20T14:25:48;2.35;;;0.80;;
54247;SDS011;40161;39.768;2.722;2022-08-20T14:31:30;3.70;;;0.85;;
54247;SDS011;40161;39.768;2.722;2022-08-20T14:33:55;2.80;;;0.90;;
54247;SDS011;40161;39.768;2.722;2022-08-20T14:36:21;2.72;;;0.95;;
54247;SDS011;40161;39.768;2.722;2022-08-20T14:38:46;2.45;;;0.93;;
54247;SDS011;40161;39.768;2.722;2022-08-20T14:41:12;2.42;;;0.98;;
54247;SDS011;40161;39.768;2.722;2022-08-20T14:47:09;2.85;;;0.65;;
54247;SDS011;40161;39.768;2.722;2022-08-20T14:49:36;3.67;;;0.85;;
54247;SDS011;40161;39.768;2.722;2022-08-20T14:52:02;5.22;;;1.00;;
54247;SDS011;40161;39.768;2.722;2022-08-20T14:54:27;2.67;;;0.70;;
54247;SDS011;40161;39.768;2.722;2022-08-20T14:56:53;2.53;;;0.90;;
54247;SDS011;40161;39.768;2.722;2022-08-20T14:59:19;1.95;;;0.75;;
54247;SDS011;40161;39.768;2.722;2022-08-20T15:05:06;2.22;;;0.82;;
54247;SDS011;40161;39.768;2.722;2022-08-20T15:07:34;4.90;;;0.90;;
54247;SDS011;40161;39.768;2.722;2022-08-20T15:13:24;1.85;;;0.65;;
54247;SDS011;40161;39.768;2.722;2022-08-20T15:15:50;2.33;;;0.63;;
54247;SDS011;40161;39.768;2.722;2022-08-20T15:28:01;3.40;;;0.77;;
54247;SDS011;40161;39.768;2.722;2022-08-20T15:30:29;3.28;;;0.90;;
54247;SDS011;40161;39.768;2.722;2022-08-20T15:32:55;1.60;;;0.70;;
54247;SDS011;40161;39.768;2.722;2022-08-20T15:42:04;3.25;;;1.20;;
54247;SDS011;40161;39.768;2.722;2022-08-20T15:53:09;1.42;;;0.65;;
54247;SDS011;40161;39.768;2.722;2022-08-20T16:16:13;3.17;;;0.80;;
54247;SDS011;40161;39.768;2.722;2022-08-20T16:28:27;1.13;;;0.70;;
54247;SDS011;40161;39.768;2.722;2022-08-20T16:37:56;1.27;;;0.70;;
54247;SDS011;40161;39.768;2.722;2022-08-20T16:40:43;4.10;;;0.90;;
54247;SDS011;40161;39.768;2.722;2022-08-20T16:43:28;0.85;;;0.60;;
54247;SDS011;40161;39.768;2.722;2022-08-20T16:49:01;4.18;;;0.77;;
54247;SDS011;40161;39.768;2.722;2022-08-20T16:54:15;1.45;;;0.60;;
54247;SDS011;40161;39.768;2.722;2022-08-20T16:56:44;3.55;;;1.10;;
54247;SDS011;40161;39.768;2.722;2022-08-20T17:08:04;2.78;;;0.68;;